Capewater — PBPQ — position and weather

sailwx.info

Track history (hours):
 
Tides and Currents Weather Stations Pressure Air Temp Water Temp Dewpoint Dewpoint Depression Visibility Wind Speed Wind Dir Waves Ship Positions

Capewater

Last reported at 2016-Aug-25 12:33 UTC. Time now 2016-Aug-25 14:59 UTC.
Position N 51°48' E 003°20'.

Length 100 m; draft 7.4 m.

Type: Tanker. MMSI: 246346000.

Date/timePositionNaut miles runAvg speedWind from/ knotsBaromVisibWave heightAir tempDewpointWater temp
2016-Aug-25 12:33N 51°48' E 003°20'0 0.0
2016-Aug-25 11:09N 51°48' E 003°20'0 0.1
2016-Aug-25 10:33N 51°48' E 003°20'0 0.0
2016-Aug-25 09:33N 51°48' E 003°20'0 0.0
2016-Aug-25 08:33N 51°48' E 003°20'0 0.0
2016-Aug-25 07:27N 51°48' E 003°20'0 0.0
2016-Aug-25 06:33N 51°48' E 003°20'0 0.0
2016-Aug-25 04:33N 51°48' E 003°20'0 0.1
2016-Aug-25 03:33N 51°48' E 003°20'0 0.0
2016-Aug-25 02:30N 51°48' E 003°20'0 0.0
2016-Aug-25 01:33N 51°48' E 003°20'0 0.0
2016-Aug-25 00:33N 51°48' E 003°20'0 0.0
2016-Aug-24 23:18N 51°48' E 003°20'0 0.1
2016-Aug-24 22:18N 51°48' E 003°20'0 0.0
2016-Aug-24 21:33N 51°48' E 003°20'0 0.0
2016-Aug-24 20:33N 51°48' E 003°20'0 0.0
2016-Aug-24 19:33N 51°48' E 003°20'0 0.0
2016-Aug-24 12:33N 51°48' E 003°20'0 0.0
2016-Aug-24 09:33N 51°48' E 003°20'0 0.0
2016-Aug-24 08:14N 51°48' E 003°20'0 0.0
2016-Aug-24 07:33N 51°48' E 003°20'0 0.0
2016-Aug-24 06:26N 51°48' E 003°20'0 0.0
2016-Aug-24 04:24N 51°48' E 003°20'0 0.1
2016-Aug-24 03:32N 51°48' E 003°20'0 0.1
2016-Aug-24 02:32N 51°48' E 003°20'0 0.0
2016-Aug-24 01:32N 51°48' E 003°20'0 0.0
2016-Aug-24 00:32N 51°48' E 003°20'0 0.0
2016-Aug-23 23:33N 51°48' E 003°20'0 0.0
2016-Aug-23 22:29N 51°48' E 003°20'0 0.1
2016-Aug-23 21:33N 51°48' E 003°20'0 0.1
2016-Aug-23 20:33N 51°48' E 003°20'0 0.0
2016-Aug-23 15:30N 51°48' E 003°20'0 0.0
2016-Aug-23 11:17N 51°48' E 003°20'0 0.0
2016-Aug-23 10:32N 51°48' E 003°20'0 0.0
2016-Aug-23 09:32N 51°48' E 003°20'0 0.1
2016-Aug-23 08:32N 51°48' E 003°20'0 0.0
2016-Aug-23 07:32N 51°48' E 003°20'3 2.4
2016-Aug-23 06:26N 51°51' E 003°19'1010.8
2016-Aug-23 05:29N 52°01' E 003°20'1011.1
2016-Aug-23 04:33N 52°11' E 003°22'1210.3
2016-Aug-23 03:24N 52°23' E 003°25'1212.8
2016-Aug-23 02:28N 52°35' E 003°28'1213.5
2016-Aug-23 01:33N 52°44' E 003°40'1413.7
2016-Aug-23 00:33N 52°54' E 003°55'1312.6
2016-Aug-22 23:33N 53°03' E 004°10'3710.8
2016-Aug-22 20:06N 53°32' E 004°51'610.5
2016-Aug-22 19:33N 53°34' E 005°00'1110.8
2016-Aug-22 18:34N 53°37' E 005°17'1211.8
2016-Aug-22 17:33N 53°40' E 005°36'1212.4
2016-Aug-22 16:33N 53°45' E 005°56'1212.4
2016-Aug-22 15:33N 53°49' E 006°16'1211.9
2016-Aug-22 14:33N 53°52' E 006°35'1211.6
2016-Aug-22 13:33N 53°54' E 006°55'1111.2
2016-Aug-22 12:33N 53°57' E 007°13'1110.7
2016-Aug-22 11:33N 53°60' E 007°31'1110.5
2016-Aug-22 10:33N 54°02' E 007°48'1110.5
2016-Aug-22 09:33N 54°01' E 008°06'1211.7
2016-Aug-22 08:33N 53°59' E 008°26'1515.0
2016-Aug-22 07:33N 53°51' E 008°47'1313.4
2016-Aug-22 06:33N 53°54' E 009°09'2 1.7
2016-Aug-22 05:33N 53°55' E 009°11'0 0.0
2016-Aug-22 04:33N 53°55' E 009°11'0 0.0
2016-Aug-22 03:33N 53°55' E 009°11'2 1.6
2016-Aug-22 02:34N 53°56' E 009°13'7 7.4
2016-Aug-22 01:34N 54°03' E 009°18'8 7.5
2016-Aug-22 00:26N 54°10' E 009°25'15 6.5
2016-Aug-21 22:07N 54°20' E 009°44'4 6.8
2016-Aug-21 21:33N 54°22' E 009°50'7 7.3
2016-Aug-21 20:33N 54°22' E 010°03'3 3.4
2016-Aug-21 19:33N 54°22' E 010°09'7 7.3
2016-Aug-21 18:33N 54°28' E 010°15'1211.7
2016-Aug-21 17:33N 54°34' E 010°33'1313.0
2016-Aug-21 16:33N 54°36' E 010°55'1313.1
2016-Aug-21 15:33N 54°35' E 011°17'1413.6
2016-Aug-21 14:33N 54°29' E 011°38'1313.0
2016-Aug-21 13:33N 54°27' E 012°01'1211.6
2016-Aug-21 12:33N 54°36' E 012°14'1313.0
2016-Aug-21 11:33N 54°43' E 012°31'3912.9
2016-Aug-21 08:31N 54°58' E 013°34'1313.1
2016-Aug-21 07:33N 55°02' E 013°55'1312.6
2016-Aug-21 06:33N 55°10' E 014°13'1313.2
2016-Aug-21 05:33N 55°20' E 014°27'1313.1
2016-Aug-21 04:33N 55°29' E 014°44'1313.2
2016-Aug-21 03:33N 55°35' E 015°05'1312.9
2016-Aug-21 02:33N 55°41' E 015°25'  
2016-Aug-17 12:34N 55°44' E 015°42'1313.3
2016-Aug-17 11:33N 55°38' E 015°21'1414.0
2016-Aug-17 10:33N 55°31' E 014°59'1414.1
2016-Aug-17 09:33N 55°24' E 014°38'1413.9
2016-Aug-17 08:33N 55°13' E 014°22'1313.0
2016-Aug-17 07:33N 55°11' E 013°60'1414.0
2016-Aug-17 06:34N 55°10' E 013°35'1413.6
2016-Aug-17 05:34N 55°12' E 013°12'1414.2
2016-Aug-17 04:33N 55°16' E 012°48'1110.8
2016-Aug-17 03:33N 55°26' E 012°40'1212.2
2016-Aug-17 02:33N 55°36' E 012°52'10 9.7
2016-Aug-17 01:33N 55°45' E 012°50'1111.0
2016-Aug-17 00:33N 55°56' E 012°43'1111.0
2016-Aug-16 23:33N 56°06' E 012°34'1312.7
2016-Aug-16 22:34N 56°13' E 012°16'1312.6
2016-Aug-16 21:33N 56°23' E 012°01'1413.7
2016-Aug-16 20:33N 56°36' E 011°56'1312.8
2016-Aug-16 19:34N 56°48' E 011°50'1414.3
2016-Aug-16 18:33N 57°02' E 011°41'1514.5
2016-Aug-16 17:33N 57°15' E 011°32'1414.3
2016-Aug-16 16:33N 57°29' E 011°22'1413.6
2016-Aug-16 15:33N 57°42' E 011°21'1312.6
2016-Aug-16 14:33N 57°54' E 011°31'1211.6
2016-Aug-16 13:33N 58°02' E 011°47'  
Track history (hours):
 
Tides and Currents Weather Stations Pressure Air Temp Water Temp Dewpoint Dewpoint Depression Visibility Wind Speed Wind Dir Waves Ship Positions

Capewater

Last reported at 2016-Aug-25 12:33 UTC. Time now 2016-Aug-25 14:59 UTC.
Position N 51°48' E 003°20'.

Length 100 m; draft 7.4 m.

Type: Tanker. MMSI: 246346000.

Date/timePositionNaut miles runAvg speedWind from/ knotsBaromVisibWave heightAir tempDewpointWater temp
2016-Aug-25 12:33N 51°48' E 003°20'0 0.0
2016-Aug-25 11:09N 51°48' E 003°20'0 0.1
2016-Aug-25 10:33N 51°48' E 003°20'0 0.0
2016-Aug-25 09:33N 51°48' E 003°20'0 0.0
2016-Aug-25 08:33N 51°48' E 003°20'0 0.0
2016-Aug-25 07:27N 51°48' E 003°20'0 0.0
2016-Aug-25 06:33N 51°48' E 003°20'0 0.0
2016-Aug-25 04:33N 51°48' E 003°20'0 0.1
2016-Aug-25 03:33N 51°48' E 003°20'0 0.0
2016-Aug-25 02:30N 51°48' E 003°20'0 0.0
2016-Aug-25 01:33N 51°48' E 003°20'0 0.0
2016-Aug-25 00:33N 51°48' E 003°20'0 0.0
2016-Aug-24 23:18N 51°48' E 003°20'0 0.1
2016-Aug-24 22:18N 51°48' E 003°20'0 0.0
2016-Aug-24 21:33N 51°48' E 003°20'0 0.0
2016-Aug-24 20:33N 51°48' E 003°20'0 0.0
2016-Aug-24 19:33N 51°48' E 003°20'0 0.0
2016-Aug-24 12:33N 51°48' E 003°20'0 0.0
2016-Aug-24 09:33N 51°48' E 003°20'0 0.0
2016-Aug-24 08:14N 51°48' E 003°20'0 0.0
2016-Aug-24 07:33N 51°48' E 003°20'0 0.0
2016-Aug-24 06:26N 51°48' E 003°20'0 0.0
2016-Aug-24 04:24N 51°48' E 003°20'0 0.1
2016-Aug-24 03:32N 51°48' E 003°20'0 0.1
2016-Aug-24 02:32N 51°48' E 003°20'0 0.0
2016-Aug-24 01:32N 51°48' E 003°20'0 0.0
2016-Aug-24 00:32N 51°48' E 003°20'0 0.0
2016-Aug-23 23:33N 51°48' E 003°20'0 0.0
2016-Aug-23 22:29N 51°48' E 003°20'0 0.1
2016-Aug-23 21:33N 51°48' E 003°20'0 0.1
2016-Aug-23 20:33N 51°48' E 003°20'0 0.0
2016-Aug-23 15:30N 51°48' E 003°20'0 0.0
2016-Aug-23 11:17N 51°48' E 003°20'0 0.0
2016-Aug-23 10:32N 51°48' E 003°20'0 0.0
2016-Aug-23 09:32N 51°48' E 003°20'0 0.1
2016-Aug-23 08:32N 51°48' E 003°20'0 0.0
2016-Aug-23 07:32N 51°48' E 003°20'3 2.4
2016-Aug-23 06:26N 51°51' E 003°19'1010.8
2016-Aug-23 05:29N 52°01' E 003°20'1011.1
2016-Aug-23 04:33N 52°11' E 003°22'1210.3
2016-Aug-23 03:24N 52°23' E 003°25'1212.8
2016-Aug-23 02:28N 52°35' E 003°28'1213.5
2016-Aug-23 01:33N 52°44' E 003°40'1413.7
2016-Aug-23 00:33N 52°54' E 003°55'1312.6
2016-Aug-22 23:33N 53°03' E 004°10'3710.8
2016-Aug-22 20:06N 53°32' E 004°51'610.5
2016-Aug-22 19:33N 53°34' E 005°00'1110.8
2016-Aug-22 18:34N 53°37' E 005°17'1211.8
2016-Aug-22 17:33N 53°40' E 005°36'1212.4
2016-Aug-22 16:33N 53°45' E 005°56'1212.4
2016-Aug-22 15:33N 53°49' E 006°16'1211.9
2016-Aug-22 14:33N 53°52' E 006°35'1211.6
2016-Aug-22 13:33N 53°54' E 006°55'1111.2
2016-Aug-22 12:33N 53°57' E 007°13'1110.7
2016-Aug-22 11:33N 53°60' E 007°31'1110.5
2016-Aug-22 10:33N 54°02' E 007°48'1110.5
2016-Aug-22 09:33N 54°01' E 008°06'1211.7
2016-Aug-22 08:33N 53°59' E 008°26'1515.0
2016-Aug-22 07:33N 53°51' E 008°47'1313.4
2016-Aug-22 06:33N 53°54' E 009°09'2 1.7
2016-Aug-22 05:33N 53°55' E 009°11'0 0.0
2016-Aug-22 04:33N 53°55' E 009°11'0 0.0
2016-Aug-22 03:33N 53°55' E 009°11'2 1.6
2016-Aug-22 02:34N 53°56' E 009°13'7 7.4
2016-Aug-22 01:34N 54°03' E 009°18'8 7.5
2016-Aug-22 00:26N 54°10' E 009°25'15 6.5
2016-Aug-21 22:07N 54°20' E 009°44'4 6.8
2016-Aug-21 21:33N 54°22' E 009°50'7 7.3
2016-Aug-21 20:33N 54°22' E 010°03'3 3.4
2016-Aug-21 19:33N 54°22' E 010°09'7 7.3
2016-Aug-21 18:33N 54°28' E 010°15'1211.7
2016-Aug-21 17:33N 54°34' E 010°33'1313.0
2016-Aug-21 16:33N 54°36' E 010°55'1313.1
2016-Aug-21 15:33N 54°35' E 011°17'1413.6
2016-Aug-21 14:33N 54°29' E 011°38'1313.0
2016-Aug-21 13:33N 54°27' E 012°01'1211.6
2016-Aug-21 12:33N 54°36' E 012°14'1313.0
2016-Aug-21 11:33N 54°43' E 012°31'3912.9
2016-Aug-21 08:31N 54°58' E 013°34'1313.1
2016-Aug-21 07:33N 55°02' E 013°55'1312.6
2016-Aug-21 06:33N 55°10' E 014°13'1313.2
2016-Aug-21 05:33N 55°20' E 014°27'1313.1
2016-Aug-21 04:33N 55°29' E 014°44'1313.2
2016-Aug-21 03:33N 55°35' E 015°05'1312.9
2016-Aug-21 02:33N 55°41' E 015°25'  
2016-Aug-17 12:34N 55°44' E 015°42'1313.3
2016-Aug-17 11:33N 55°38' E 015°21'1414.0
2016-Aug-17 10:33N 55°31' E 014°59'1414.1
2016-Aug-17 09:33N 55°24' E 014°38'1413.9
2016-Aug-17 08:33N 55°13' E 014°22'1313.0
2016-Aug-17 07:33N 55°11' E 013°60'1414.0
2016-Aug-17 06:34N 55°10' E 013°35'1413.6
2016-Aug-17 05:34N 55°12' E 013°12'1414.2
2016-Aug-17 04:33N 55°16' E 012°48'1110.8
2016-Aug-17 03:33N 55°26' E 012°40'1212.2
2016-Aug-17 02:33N 55°36' E 012°52'10 9.7
2016-Aug-17 01:33N 55°45' E 012°50'1111.0
2016-Aug-17 00:33N 55°56' E 012°43'1111.0
2016-Aug-16 23:33N 56°06' E 012°34'1312.7
2016-Aug-16 22:34N 56°13' E 012°16'1312.6
2016-Aug-16 21:33N 56°23' E 012°01'1413.7
2016-Aug-16 20:33N 56°36' E 011°56'1312.8
2016-Aug-16 19:34N 56°48' E 011°50'1414.3
2016-Aug-16 18:33N 57°02' E 011°41'1514.5
2016-Aug-16 17:33N 57°15' E 011°32'1414.3
2016-Aug-16 16:33N 57°29' E 011°22'1413.6
2016-Aug-16 15:33N 57°42' E 011°21'1312.6
2016-Aug-16 14:33N 57°54' E 011°31'1211.6
2016-Aug-16 13:33N 58°02' E 011°47'  

Dump ship's entire track history